createdAt,value
2023-04-15T00:01:54.940Z,2.83
2023-04-15T00:04:22.324Z,2.63
2023-04-15T00:06:53.227Z,2.77
2023-04-15T00:09:20.909Z,2.50
2023-04-15T00:11:48.126Z,2.30
2023-04-15T00:14:15.582Z,2.20
2023-04-15T00:16:42.901Z,2.23
2023-04-15T00:19:10.246Z,2.30
2023-04-15T00:21:37.560Z,2.07
2023-04-15T00:24:04.834Z,1.77
2023-04-15T00:26:32.075Z,2.13
2023-04-15T00:29:00.203Z,2.00
2023-04-15T00:31:27.639Z,1.90
2023-04-15T00:33:55.197Z,1.60
2023-04-15T00:36:23.257Z,2.17
2023-04-15T00:38:50.925Z,1.87
2023-04-15T00:41:19.365Z,2.37
2023-04-15T00:43:46.550Z,1.83
2023-04-15T00:46:14.001Z,1.90
2023-04-15T00:48:41.465Z,2.13
2023-04-15T00:51:09.623Z,1.97
2023-04-15T00:53:36.990Z,1.77
2023-04-15T00:56:04.253Z,1.80
2023-04-15T00:58:31.707Z,1.83
2023-04-15T01:00:59.440Z,1.73
2023-04-15T01:03:27.208Z,2.20
2023-04-15T01:05:58.249Z,2.13
2023-04-15T01:08:29.597Z,1.80
2023-04-15T01:11:15.614Z,2.13
2023-04-15T01:13:42.971Z,1.90
2023-04-15T01:16:10.538Z,1.77
2023-04-15T01:18:37.801Z,1.90
2023-04-15T01:21:07.788Z,1.77
2023-04-15T01:23:38.567Z,2.30
2023-04-15T01:26:08.967Z,1.83
2023-04-15T01:28:37.501Z,1.73
2023-04-15T01:31:16.831Z,1.80
2023-04-15T01:33:44.432Z,1.80
2023-04-15T01:36:11.733Z,2.37
2023-04-15T01:38:39.329Z,2.33
2023-04-15T01:41:08.142Z,2.20
2023-04-15T01:43:37.245Z,2.40
2023-04-15T01:46:04.505Z,2.13
2023-04-15T01:48:33.405Z,2.03
2023-04-15T01:51:00.722Z,2.23
2023-04-15T01:53:28.900Z,2.20
2023-04-15T01:55:56.241Z,2.33
2023-04-15T01:58:23.448Z,2.33
2023-04-15T02:00:51.038Z,1.90
2023-04-15T02:03:18.647Z,2.63
2023-04-15T02:05:46.008Z,2.60
2023-04-15T02:08:13.368Z,2.20
2023-04-15T02:10:40.636Z,2.63
2023-04-15T02:13:07.921Z,2.60
2023-04-15T02:15:35.092Z,2.47
2023-04-15T02:18:02.766Z,2.23
2023-04-15T02:20:30.907Z,2.43
2023-04-15T02:22:58.859Z,2.50
2023-04-15T02:25:26.162Z,2.20
2023-04-15T02:27:55.525Z,2.40
2023-04-15T02:30:23.938Z,2.50
2023-04-15T02:32:51.399Z,2.63
2023-04-15T02:35:21.805Z,2.77
2023-04-15T02:37:49.064Z,2.90
2023-04-15T02:43:01.795Z,2.60
2023-04-15T02:45:30.057Z,2.70
2023-04-15T02:48:06.157Z,2.70
2023-04-15T02:50:33.748Z,2.70
2023-04-15T02:53:01.705Z,3.10
2023-04-15T02:55:30.061Z,2.60
2023-04-15T02:57:59.733Z,3.00
2023-04-15T03:00:27.388Z,2.60
2023-04-15T03:02:59.220Z,2.90
2023-04-15T03:05:26.741Z,2.67
2023-04-15T03:07:54.303Z,3.00
2023-04-15T03:10:22.249Z,2.90
2023-04-15T03:12:52.744Z,2.60
2023-04-15T03:15:22.439Z,2.60
2023-04-15T03:17:52.699Z,2.93
2023-04-15T03:20:20.362Z,2.80
2023-04-15T03:22:49.035Z,2.90
2023-04-15T03:25:16.954Z,2.73
2023-04-15T03:27:44.176Z,2.80
2023-04-15T03:30:13.019Z,2.67
2023-04-15T03:32:41.369Z,2.73
2023-04-15T03:35:09.695Z,2.43
2023-04-15T03:37:37.144Z,2.90
2023-04-15T03:40:04.396Z,2.60
2023-04-15T03:42:31.689Z,2.50
2023-04-15T03:44:58.866Z,2.73
2023-04-15T03:47:26.282Z,2.80
2023-04-15T03:49:53.471Z,3.30
2023-04-15T03:52:20.878Z,2.70
2023-04-15T03:54:48.109Z,3.20
2023-04-15T03:57:15.434Z,2.60
2023-04-15T03:59:42.605Z,2.80
2023-04-15T04:02:10.006Z,2.93
2023-04-15T04:04:37.369Z,3.03
2023-04-15T04:07:04.609Z,3.30
2023-04-15T04:09:32.160Z,2.90
2023-04-15T04:11:59.328Z,2.83
2023-04-15T04:14:29.724Z,2.97
2023-04-15T04:16:57.489Z,3.00
2023-04-15T04:19:24.826Z,3.07
2023-04-15T04:21:52.213Z,2.93
2023-04-15T04:24:19.551Z,2.93
2023-04-15T04:26:46.821Z,2.87
2023-04-15T04:29:14.062Z,3.10
2023-04-15T04:31:41.607Z,2.83
2023-04-15T04:34:09.827Z,2.70
2023-04-15T04:36:37.054Z,3.30
2023-04-15T04:39:04.453Z,3.03
2023-04-15T04:41:32.350Z,3.40
2023-04-15T04:43:59.552Z,3.20
2023-04-15T04:46:26.783Z,3.00
2023-04-15T04:48:54.000Z,3.00
2023-04-15T04:51:21.250Z,3.43
2023-04-15T04:53:48.455Z,3.67
2023-04-15T04:56:16.010Z,3.80
2023-04-15T04:58:43.198Z,3.20
2023-04-15T05:01:10.637Z,2.93
2023-04-15T05:03:38.337Z,3.47
2023-04-15T05:06:08.751Z,3.10
2023-04-15T05:08:36.732Z,3.10
2023-04-15T05:11:04.838Z,3.87
2023-04-15T05:13:33.616Z,2.83
2023-04-15T05:16:00.920Z,3.10
2023-04-15T05:18:29.097Z,3.03
2023-04-15T05:20:56.241Z,2.73
2023-04-15T05:23:23.424Z,3.10
2023-04-15T05:25:50.689Z,2.70
2023-04-15T05:28:17.890Z,3.00
2023-04-15T05:30:45.068Z,3.20
2023-04-15T05:33:12.416Z,2.47
2023-04-15T05:35:39.660Z,2.67
2023-04-15T05:38:06.947Z,2.53
2023-04-15T05:40:34.201Z,2.97
2023-04-15T05:43:01.468Z,2.97
2023-04-15T05:45:28.742Z,2.60
2023-04-15T05:47:56.160Z,2.60
2023-04-15T05:50:23.554Z,2.17
2023-04-15T05:52:50.759Z,2.00
2023-04-15T05:55:18.120Z,2.17
2023-04-15T05:57:45.590Z,2.10
2023-04-15T06:00:13.435Z,2.10
2023-04-15T06:02:41.769Z,1.90
2023-04-15T06:05:10.804Z,2.07
2023-04-15T06:07:38.819Z,1.87
2023-04-15T06:10:06.567Z,1.87
2023-04-15T06:12:33.980Z,1.80
2023-04-15T06:15:01.377Z,1.70
2023-04-15T06:17:28.891Z,1.70
2023-04-15T06:19:56.443Z,2.07
2023-04-15T06:22:23.998Z,3.90
2023-04-15T06:24:51.677Z,2.07
2023-04-15T06:27:18.892Z,1.30
2023-04-15T06:29:46.306Z,1.20
2023-04-15T06:32:13.777Z,1.40
2023-04-15T06:34:41.237Z,1.70
2023-04-15T06:37:10.939Z,1.60
2023-04-15T06:39:38.315Z,1.50
2023-04-15T06:42:05.624Z,1.23
2023-04-15T06:44:33.899Z,1.37
2023-04-15T06:47:01.566Z,1.50
2023-04-15T06:49:28.791Z,1.20
2023-04-15T06:51:56.554Z,1.40
2023-04-15T06:54:23.732Z,1.30
2023-04-15T06:56:51.529Z,1.20
2023-04-15T06:59:19.055Z,1.10
2023-04-15T07:01:46.685Z,1.20
2023-04-15T07:04:14.002Z,0.93
2023-04-15T07:06:42.068Z,1.00
2023-04-15T07:09:09.798Z,1.83
2023-04-15T07:11:37.060Z,17.40
2023-04-15T07:14:04.705Z,5.13
2023-04-15T07:16:32.035Z,1.60
2023-04-15T07:18:59.550Z,1.30
2023-04-15T07:21:27.687Z,1.20
2023-04-15T07:23:54.989Z,1.23
2023-04-15T07:26:22.245Z,0.93
2023-04-15T07:28:50.024Z,1.10
2023-04-15T07:31:17.691Z,1.00
2023-04-15T07:33:44.945Z,1.20
2023-04-15T07:36:12.234Z,1.50
2023-04-15T07:38:39.830Z,1.27
2023-04-15T07:41:07.001Z,1.20
2023-04-15T07:43:34.240Z,1.37
2023-04-15T07:46:01.485Z,0.90
2023-04-15T07:48:47.304Z,0.90
2023-04-15T07:51:14.703Z,0.93
2023-04-15T07:53:42.537Z,0.83
2023-04-15T07:56:09.707Z,0.90
2023-04-15T07:58:37.310Z,0.97
2023-04-15T08:01:05.284Z,0.70
2023-04-15T08:03:33.102Z,0.93
2023-04-15T08:06:00.828Z,1.10
2023-04-15T08:08:28.058Z,1.20
2023-04-15T08:10:55.275Z,0.90
2023-04-15T08:13:22.516Z,1.07
2023-04-15T08:16:09.837Z,1.07
2023-04-15T08:21:22.675Z,1.30
2023-04-15T08:23:51.520Z,1.20
2023-04-15T08:26:19.233Z,1.03
2023-04-15T08:28:46.829Z,1.40
2023-04-15T08:31:15.505Z,1.03
2023-04-15T08:33:43.180Z,1.23
2023-04-15T08:36:10.573Z,5.10
2023-04-15T08:38:38.035Z,2.00
2023-04-15T08:41:08.124Z,1.50
2023-04-15T08:43:36.282Z,1.50
2023-04-15T08:46:05.151Z,1.40
2023-04-15T08:48:38.649Z,1.50
2023-04-15T08:51:05.967Z,1.50
2023-04-15T08:53:33.696Z,1.70
2023-04-15T08:56:02.926Z,2.40
2023-04-15T08:58:30.663Z,2.43
2023-04-15T09:00:58.008Z,2.63
2023-04-15T09:03:25.580Z,2.50
2023-04-15T09:05:53.344Z,2.53
2023-04-15T09:08:21.028Z,2.60
2023-04-15T09:10:48.436Z,2.57
2023-04-15T09:13:15.818Z,2.87
2023-04-15T09:15:43.332Z,2.80
2023-04-15T09:18:13.647Z,3.20
2023-04-15T09:20:42.363Z,3.37
2023-04-15T09:23:17.532Z,2.90
2023-04-15T09:25:44.861Z,3.13
2023-04-15T09:28:12.047Z,2.93
2023-04-15T09:30:39.422Z,2.27
2023-04-15T09:33:08.557Z,2.60
2023-04-15T09:35:36.776Z,2.70
2023-04-15T09:38:08.228Z,2.93
2023-04-15T09:40:44.482Z,2.70
2023-04-15T09:43:14.680Z,2.50
2023-04-15T09:45:48.407Z,2.70
2023-04-15T09:48:17.406Z,2.43
2023-04-15T09:50:45.051Z,2.50
2023-04-15T09:53:13.102Z,3.00
2023-04-15T09:55:40.546Z,2.57
2023-04-15T09:58:10.392Z,2.80
2023-04-15T10:00:38.717Z,2.80
2023-04-15T10:03:07.411Z,2.90
2023-04-15T10:05:35.243Z,2.97
2023-04-15T10:08:02.671Z,2.47
2023-04-15T10:10:30.042Z,2.77
2023-04-15T10:12:57.459Z,2.50
2023-04-15T10:15:25.966Z,2.90
2023-04-15T10:17:54.445Z,2.47
2023-04-15T10:20:21.818Z,3.27
2023-04-15T10:22:49.502Z,2.50
2023-04-15T10:25:16.869Z,2.77
2023-04-15T10:27:44.297Z,3.13
2023-04-15T10:30:11.852Z,2.50
2023-04-15T10:32:39.714Z,2.93
2023-04-15T10:35:10.331Z,3.20
2023-04-15T10:37:38.841Z,2.73
2023-04-15T10:40:28.324Z,3.27
2023-04-15T10:42:56.621Z,2.73
2023-04-15T10:45:26.981Z,2.83
2023-04-15T10:47:59.349Z,2.80
2023-04-15T10:50:29.707Z,3.07
2023-04-15T10:52:57.681Z,3.30
2023-04-15T10:55:32.173Z,3.20
2023-04-15T10:58:01.418Z,2.60
2023-04-15T11:00:30.700Z,2.83
2023-04-15T11:02:59.132Z,2.40
2023-04-15T11:05:45.189Z,2.67
2023-04-15T11:08:13.273Z,2.50
2023-04-15T11:10:40.534Z,2.60
2023-04-15T11:13:28.263Z,2.60
2023-04-15T11:15:58.323Z,2.50
2023-04-15T11:18:28.142Z,2.43
2023-04-15T11:21:03.336Z,2.80
2023-04-15T11:23:30.852Z,2.63
2023-04-15T11:25:58.580Z,2.10
2023-04-15T11:28:27.728Z,2.10
2023-04-15T11:30:55.795Z,2.13
2023-04-15T11:33:24.130Z,2.00
2023-04-15T11:35:52.058Z,2.23
2023-04-15T11:38:19.372Z,1.93
2023-04-15T11:40:47.337Z,2.10
2023-04-15T11:43:16.291Z,1.90
2023-04-15T11:45:53.127Z,1.83
2023-04-15T11:48:21.443Z,2.10
2023-04-15T11:50:53.727Z,1.77
2023-04-15T11:53:21.749Z,1.60
2023-04-15T11:56:08.931Z,1.70
2023-04-15T11:58:40.160Z,1.67
2023-04-15T12:01:07.961Z,2.00
2023-04-15T12:03:38.804Z,1.70
2023-04-15T12:06:21.922Z,1.77
2023-04-15T12:09:00.236Z,1.43
2023-04-15T12:11:27.623Z,1.70
2023-04-15T12:13:56.684Z,1.60
2023-04-15T12:16:24.690Z,1.60
2023-04-15T12:18:58.998Z,1.60
2023-04-15T12:21:27.876Z,1.80
2023-04-15T12:23:56.505Z,1.30
2023-04-15T12:26:28.249Z,1.87
2023-04-15T12:28:57.165Z,1.47
2023-04-15T12:31:24.363Z,1.90
2023-04-15T12:33:51.549Z,1.60
2023-04-15T12:36:18.736Z,1.80
2023-04-15T12:38:46.087Z,1.80
2023-04-15T12:41:13.282Z,1.60
2023-04-15T12:43:40.499Z,1.30
2023-04-15T12:46:08.478Z,1.60
2023-04-15T12:48:35.773Z,1.67
2023-04-15T12:51:05.578Z,1.83
2023-04-15T12:53:33.025Z,1.80
2023-04-15T12:56:00.723Z,1.60
2023-04-15T12:58:28.440Z,1.67
2023-04-15T13:00:55.962Z,2.50
2023-04-15T13:03:23.348Z,4.50
2023-04-15T13:05:50.791Z,2.10
2023-04-15T13:08:18.060Z,1.60
2023-04-15T13:10:45.461Z,1.80
2023-04-15T13:13:12.733Z,1.60
2023-04-15T13:15:39.955Z,1.63
2023-04-15T13:18:07.972Z,1.70
2023-04-15T13:20:35.428Z,1.77
2023-04-15T13:23:02.981Z,1.93
2023-04-15T13:25:30.155Z,1.63
2023-04-15T13:27:57.725Z,1.60
2023-04-15T13:30:24.951Z,1.97
2023-04-15T13:32:53.801Z,1.90
2023-04-15T13:35:21.680Z,1.77
2023-04-15T13:37:48.815Z,1.87
2023-04-15T13:40:16.178Z,1.97
2023-04-15T13:42:43.955Z,1.80
2023-04-15T13:45:11.732Z,1.87
2023-04-15T13:47:39.317Z,2.10
2023-04-15T13:50:07.148Z,1.83
2023-04-15T13:52:34.440Z,2.00
2023-04-15T13:55:18.575Z,1.90
2023-04-15T13:57:47.943Z,1.90
2023-04-15T14:00:15.506Z,1.77
2023-04-15T14:02:42.997Z,1.90
2023-04-15T14:05:11.330Z,1.80
2023-04-15T14:07:38.570Z,1.60
2023-04-15T14:10:05.952Z,1.63
2023-04-15T14:12:33.144Z,2.00
2023-04-15T14:15:00.310Z,1.80
2023-04-15T14:17:27.733Z,1.83
2023-04-15T14:19:55.346Z,1.70
2023-04-15T14:22:22.604Z,1.90
2023-04-15T14:24:49.814Z,1.77
2023-04-15T14:27:17.108Z,2.20
2023-04-15T14:29:44.325Z,2.20
2023-04-15T14:32:12.885Z,2.00
2023-04-15T14:34:40.667Z,1.70
2023-04-15T14:37:07.977Z,1.70
2023-04-15T14:39:35.200Z,1.90
2023-04-15T14:42:02.405Z,1.60
2023-04-15T14:44:32.555Z,1.77
2023-04-15T14:46:59.789Z,1.70
2023-04-15T14:49:27.186Z,1.80
2023-04-15T14:51:54.391Z,1.70
2023-04-15T14:54:22.589Z,1.97
2023-04-15T14:56:49.913Z,1.73
2023-04-15T14:59:35.772Z,1.70
2023-04-15T15:02:03.185Z,1.60
2023-04-15T15:04:32.969Z,1.60
2023-04-15T15:07:00.775Z,1.73
2023-04-15T15:09:28.130Z,1.90
2023-04-15T15:11:56.953Z,1.50
2023-04-15T15:14:24.250Z,1.60
2023-04-15T15:16:51.550Z,1.60
2023-04-15T15:19:18.776Z,1.73
2023-04-15T15:21:46.021Z,1.53
2023-04-15T15:24:13.239Z,1.60
2023-04-15T15:26:40.927Z,1.60
2023-04-15T15:29:08.626Z,1.87
2023-04-15T15:31:36.109Z,1.80
2023-04-15T15:34:03.600Z,1.97
2023-04-15T15:36:31.663Z,1.80
2023-04-15T15:38:59.869Z,1.73
2023-04-15T15:41:27.218Z,1.77
2023-04-15T15:43:55.122Z,1.63
2023-04-15T15:46:33.825Z,1.63
2023-04-15T15:49:03.320Z,1.83
2023-04-15T15:51:30.942Z,1.60
2023-04-15T15:53:58.208Z,1.70
2023-04-15T15:56:26.959Z,1.70
2023-04-15T15:58:54.230Z,1.73
2023-04-15T16:01:21.650Z,1.50
2023-04-15T16:03:49.134Z,2.00
2023-04-15T16:06:16.729Z,1.70
2023-04-15T16:08:43.898Z,1.80
2023-04-15T16:11:11.534Z,1.63
2023-04-15T16:13:38.844Z,1.77
2023-04-15T16:16:06.519Z,2.03
2023-04-15T16:18:35.291Z,1.57
2023-04-15T16:21:02.656Z,1.53
2023-04-15T16:23:30.491Z,1.80
2023-04-15T16:25:57.947Z,1.77
2023-04-15T16:28:27.108Z,1.80
2023-04-15T16:30:55.418Z,1.73
2023-04-15T16:33:22.779Z,1.70
2023-04-15T16:35:50.355Z,1.47
2023-04-15T16:38:17.643Z,1.60
2023-04-15T16:40:44.905Z,1.80
2023-04-15T16:43:12.210Z,1.80
2023-04-15T16:45:39.507Z,1.70
2023-04-15T16:48:06.899Z,1.80
2023-04-15T16:50:34.168Z,1.70
2023-04-15T16:53:01.571Z,2.07
2023-04-15T16:55:28.878Z,1.70
2023-04-15T16:58:01.883Z,1.60
2023-04-15T17:00:30.393Z,9.07
2023-04-15T17:03:03.678Z,6.97
2023-04-15T17:05:31.906Z,4.60
2023-04-15T17:08:00.162Z,1.90
2023-04-15T17:10:28.184Z,1.43
2023-04-15T17:12:59.031Z,1.43
2023-04-15T17:15:45.854Z,1.70
2023-04-15T17:18:13.718Z,2.07
2023-04-15T17:20:41.507Z,2.10
2023-04-15T17:23:09.502Z,1.70
2023-04-15T17:25:37.367Z,1.70
2023-04-15T17:28:05.146Z,1.63
2023-04-15T17:30:33.745Z,1.70
2023-04-15T17:33:02.092Z,1.83
2023-04-15T17:35:29.988Z,2.33
2023-04-15T17:37:57.736Z,2.13
2023-04-15T17:40:25.492Z,2.57
2023-04-15T17:42:53.391Z,1.97
2023-04-15T17:45:21.202Z,1.80
2023-04-15T17:47:49.174Z,1.80
2023-04-15T17:50:16.893Z,1.73
2023-04-15T17:52:44.855Z,1.97
2023-04-15T17:55:12.891Z,1.83
2023-04-15T17:57:40.835Z,2.47
2023-04-15T18:00:10.794Z,1.93
2023-04-15T18:02:41.791Z,2.00
2023-04-15T18:05:09.864Z,2.30
2023-04-15T18:07:37.652Z,1.90
2023-04-15T18:10:05.342Z,9.03
2023-04-15T18:12:32.917Z,2.47
2023-04-15T18:15:00.467Z,2.23
2023-04-15T18:17:28.577Z,3.37
2023-04-15T18:19:57.526Z,2.00
2023-04-15T18:22:25.371Z,2.13
2023-04-15T18:24:54.517Z,2.20
2023-04-15T18:27:21.851Z,2.20
2023-04-15T18:29:49.115Z,2.30
2023-04-15T18:32:16.573Z,2.43
2023-04-15T18:34:44.171Z,2.57
2023-04-15T18:37:11.576Z,2.90
2023-04-15T18:39:38.990Z,2.50
2023-04-15T18:42:07.174Z,3.07
2023-04-15T18:44:34.758Z,2.90
2023-04-15T18:47:01.983Z,3.67
2023-04-15T18:49:29.479Z,3.30
2023-04-15T18:51:56.779Z,3.27
2023-04-15T18:54:24.215Z,3.30
2023-04-15T18:56:52.336Z,3.47
2023-04-15T18:59:29.291Z,3.63
2023-04-15T19:01:58.857Z,4.03
2023-04-15T19:04:26.289Z,4.40
2023-04-15T19:06:53.592Z,5.30
2023-04-15T19:09:20.898Z,4.97
2023-04-15T19:11:48.179Z,5.07
2023-04-15T19:14:15.412Z,4.97
2023-04-15T19:16:43.263Z,5.00
2023-04-15T19:19:10.642Z,5.13
2023-04-15T19:21:37.863Z,4.87
2023-04-15T19:24:05.468Z,4.63
2023-04-15T19:26:32.884Z,4.60
2023-04-15T19:29:00.143Z,4.77
2023-04-15T19:31:27.467Z,4.73
2023-04-15T19:33:54.805Z,4.57
2023-04-15T19:36:22.090Z,5.13
2023-04-15T19:38:49.285Z,5.27
2023-04-15T19:41:16.568Z,5.20
2023-04-15T19:43:43.832Z,5.40
2023-04-15T19:46:13.203Z,5.53
2023-04-15T19:48:40.660Z,5.47
2023-04-15T19:51:08.079Z,5.57
2023-04-15T19:53:35.425Z,4.73
2023-04-15T19:56:03.042Z,4.67
2023-04-15T19:58:32.367Z,5.67
2023-04-15T20:01:01.363Z,6.00
2023-04-15T20:03:28.970Z,6.20
2023-04-15T20:05:56.436Z,6.60
2023-04-15T20:08:23.871Z,6.83
2023-04-15T20:10:51.227Z,7.67
2023-04-15T20:13:18.470Z,8.10
2023-04-15T20:15:46.007Z,6.93
2023-04-15T20:18:13.319Z,7.20
2023-04-15T20:20:40.977Z,7.00
2023-04-15T20:23:08.808Z,7.77
2023-04-15T20:25:36.469Z,7.93
2023-04-15T20:28:03.896Z,7.47
2023-04-15T20:30:31.177Z,8.17
2023-04-15T20:32:58.877Z,8.30
2023-04-15T20:35:28.202Z,41.57
2023-04-15T20:37:56.111Z,17.93
2023-04-15T20:40:23.714Z,22.57
2023-04-15T20:43:09.905Z,10.83
2023-04-15T20:45:37.275Z,8.00
2023-04-15T20:48:04.799Z,8.47
2023-04-15T20:50:32.644Z,8.13
2023-04-15T20:53:00.641Z,7.60
2023-04-15T20:55:30.233Z,7.03
2023-04-15T20:57:59.019Z,6.70
2023-04-15T21:00:26.488Z,6.20
2023-04-15T21:02:53.890Z,5.23
2023-04-15T21:05:21.692Z,5.47
2023-04-15T21:07:49.008Z,6.23
2023-04-15T21:10:16.262Z,5.13
2023-04-15T21:12:43.628Z,5.40
2023-04-15T21:15:11.147Z,5.00
2023-04-15T21:17:38.745Z,5.00
2023-04-15T21:20:06.712Z,5.07
2023-04-15T21:22:33.953Z,4.30
2023-04-15T21:25:01.246Z,4.80
2023-04-15T21:27:28.617Z,5.60
2023-04-15T21:29:55.861Z,5.33
2023-04-15T21:32:23.162Z,5.60
2023-04-15T21:34:50.367Z,5.53
2023-04-15T21:37:17.588Z,4.83
2023-04-15T21:39:44.843Z,5.47
2023-04-15T21:42:12.058Z,5.10
2023-04-15T21:44:39.297Z,5.23
2023-04-15T21:47:06.641Z,5.03
2023-04-15T21:49:34.067Z,4.73
2023-04-15T21:52:01.555Z,5.40
2023-04-15T21:54:28.935Z,5.47
2023-04-15T21:56:57.062Z,4.77
2023-04-15T21:59:24.329Z,4.47
2023-04-15T22:01:52.187Z,5.20
2023-04-15T22:04:19.686Z,5.40
2023-04-15T22:06:47.129Z,5.50
2023-04-15T22:09:14.728Z,4.97
2023-04-15T22:11:42.182Z,4.90
2023-04-15T22:14:09.881Z,5.03
2023-04-15T22:16:37.235Z,4.90
2023-04-15T22:19:04.854Z,4.80
2023-04-15T22:21:32.833Z,4.97
2023-04-15T22:24:33.574Z,5.30
2023-04-15T22:26:47.574Z,5.27
2023-04-15T22:29:14.809Z,5.60
2023-04-15T22:32:00.796Z,5.67
2023-04-15T22:34:28.020Z,5.37
2023-04-15T22:36:55.420Z,5.87
2023-04-15T22:39:22.822Z,5.63
2023-04-15T22:41:50.336Z,6.37
2023-04-15T22:44:18.012Z,5.87
2023-04-15T22:46:45.294Z,6.40
2023-04-15T22:49:12.597Z,6.20
2023-04-15T22:51:39.846Z,5.77
2023-04-15T22:54:07.202Z,7.20
2023-04-15T22:56:34.537Z,7.47
2023-04-15T22:59:01.751Z,8.23
2023-04-15T23:01:29.148Z,8.60
2023-04-15T23:04:02.992Z,8.87
2023-04-15T23:06:36.754Z,8.00
2023-04-15T23:09:04.078Z,8.10
2023-04-15T23:11:31.759Z,7.87
2023-04-15T23:13:59.000Z,8.23
2023-04-15T23:16:26.480Z,7.80
2023-04-15T23:18:53.846Z,7.43
2023-04-15T23:21:21.963Z,6.90
2023-04-15T23:23:50.235Z,6.97
2023-04-15T23:26:17.496Z,6.70
2023-04-15T23:28:44.731Z,7.10
2023-04-15T23:31:12.139Z,6.37
2023-04-15T23:33:39.410Z,7.40
2023-04-15T23:36:06.927Z,7.37
2023-04-15T23:38:34.211Z,6.63
2023-04-15T23:41:01.429Z,6.63
2023-04-15T23:43:28.667Z,6.70
2023-04-15T23:45:56.047Z,7.17
2023-04-15T23:48:23.718Z,6.63
2023-04-15T23:50:51.048Z,6.27
2023-04-15T23:53:18.283Z,6.20
2023-04-15T23:55:45.516Z,6.70
2023-04-15T23:58:12.728Z,7.73
